createdAt,value
2023-04-18T00:01:49.049Z,19.08
2023-04-18T00:03:51.374Z,19.88
2023-04-18T00:05:53.828Z,17.98
2023-04-18T00:07:56.406Z,17.52
2023-04-18T00:09:58.218Z,21.35
2023-04-18T00:12:00.035Z,20.93
2023-04-18T00:14:03.407Z,18.03
2023-04-18T00:16:06.039Z,18.75
2023-04-18T00:18:19.875Z,20.95
2023-04-18T00:20:21.751Z,19.30
2023-04-18T00:22:24.127Z,22.02
2023-04-18T00:24:26.050Z,19.33
2023-04-18T00:26:28.270Z,19.48
2023-04-18T00:28:30.216Z,22.45
2023-04-18T00:30:32.135Z,19.20
2023-04-18T00:32:34.035Z,19.83
2023-04-18T00:34:35.848Z,18.63
2023-04-18T00:36:37.668Z,17.97
2023-04-18T00:38:39.577Z,18.23
2023-04-18T00:40:41.453Z,20.95
2023-04-18T00:42:43.245Z,17.83
2023-04-18T00:44:45.030Z,20.83
2023-04-18T00:46:46.830Z,18.43
2023-04-18T00:48:48.734Z,23.30
2023-04-18T00:50:50.562Z,20.63
2023-04-18T00:52:52.551Z,19.83
2023-04-18T00:54:54.966Z,18.55
2023-04-18T00:56:56.887Z,19.42
2023-04-18T00:58:59.349Z,20.55
2023-04-18T01:01:01.194Z,17.55
2023-04-18T01:03:03.597Z,22.20
2023-04-18T01:05:06.659Z,21.55
2023-04-18T01:07:08.627Z,21.15
2023-04-18T01:09:10.947Z,19.42
2023-04-18T01:11:12.752Z,20.55
2023-04-18T01:13:19.058Z,17.90
2023-04-18T01:15:20.920Z,19.38
2023-04-18T01:17:23.468Z,18.10
2023-04-18T01:19:25.834Z,19.30
2023-04-18T01:22:08.484Z,17.20
2023-04-18T01:24:12.369Z,19.38
2023-04-18T01:26:14.554Z,17.17
2023-04-18T01:28:16.472Z,20.65
2023-04-18T01:30:18.382Z,24.33
2023-04-18T01:32:20.710Z,18.00
2023-04-18T01:34:22.776Z,18.05
2023-04-18T01:36:24.673Z,20.95
2023-04-18T01:38:26.536Z,21.37
2023-04-18T01:40:28.388Z,17.27
2023-04-18T01:42:30.244Z,18.33
2023-04-18T01:44:32.068Z,18.77
2023-04-18T01:46:34.314Z,18.58
2023-04-18T01:48:36.212Z,18.55
2023-04-18T01:50:38.048Z,17.40
2023-04-18T01:52:39.892Z,20.43
2023-04-18T01:54:41.743Z,16.47
2023-04-18T01:56:43.578Z,18.70
2023-04-18T01:58:45.607Z,22.98
2023-04-18T02:00:47.486Z,17.52
2023-04-18T02:02:50.611Z,17.58
2023-04-18T02:04:52.601Z,15.82
2023-04-18T02:06:54.471Z,18.23
2023-04-18T02:08:56.257Z,17.73
2023-04-18T02:10:58.114Z,14.13
2023-04-18T02:12:59.969Z,21.02
2023-04-18T02:15:01.834Z,21.27
2023-04-18T02:17:03.695Z,18.47
2023-04-18T02:19:06.410Z,14.63
2023-04-18T02:23:11.524Z,19.10
2023-04-18T02:25:13.456Z,18.20
2023-04-18T02:27:15.321Z,16.70
2023-04-18T02:29:17.176Z,20.10
2023-04-18T02:31:19.012Z,16.97
2023-04-18T02:33:20.955Z,16.83
2023-04-18T02:35:23.067Z,16.67
2023-04-18T02:37:24.920Z,16.98
2023-04-18T02:39:26.788Z,15.23
2023-04-18T02:41:28.809Z,17.80
2023-04-18T02:43:30.726Z,18.02
2023-04-18T02:45:32.845Z,19.83
2023-04-18T02:47:43.785Z,18.55
2023-04-18T02:49:56.261Z,20.02
2023-04-18T02:51:58.157Z,18.30
2023-04-18T02:53:59.972Z,18.37
2023-04-18T02:56:02.345Z,18.60
2023-04-18T02:58:04.183Z,18.85
2023-04-18T03:00:07.916Z,21.08
2023-04-18T03:02:09.877Z,18.30
2023-04-18T03:04:12.837Z,18.45
2023-04-18T03:06:14.881Z,20.25
2023-04-18T03:08:16.756Z,23.10
2023-04-18T03:10:18.657Z,24.00
2023-04-18T03:12:20.492Z,29.35
2023-04-18T03:14:22.341Z,25.40
2023-04-18T03:16:24.234Z,21.00
2023-04-18T03:18:26.167Z,21.80
2023-04-18T03:20:27.982Z,19.48
2023-04-18T03:22:29.868Z,17.40
2023-04-18T03:24:31.695Z,19.05
2023-04-18T03:26:33.904Z,21.20
2023-04-18T03:28:35.783Z,19.10
2023-04-18T03:30:37.594Z,21.23
2023-04-18T03:32:39.572Z,20.03
2023-04-18T03:34:41.396Z,20.00
2023-04-18T03:36:43.566Z,18.90
2023-04-18T03:38:45.904Z,18.38
2023-04-18T03:40:47.918Z,19.50
2023-04-18T03:42:49.718Z,19.65
2023-04-18T03:44:51.608Z,18.50
2023-04-18T03:46:54.197Z,19.92
2023-04-18T03:48:56.027Z,20.00
2023-04-18T03:50:57.861Z,17.60
2023-04-18T03:52:59.684Z,16.20
2023-04-18T03:55:01.689Z,19.08
2023-04-18T03:57:03.596Z,16.73
2023-04-18T03:59:05.629Z,20.00
2023-04-18T04:01:07.797Z,18.73
2023-04-18T04:03:09.726Z,16.50
2023-04-18T04:05:11.813Z,18.23
2023-04-18T04:07:13.889Z,15.43
2023-04-18T04:09:15.891Z,17.88
2023-04-18T04:11:17.788Z,19.17
2023-04-18T04:13:19.576Z,20.85
2023-04-18T04:15:21.366Z,21.77
2023-04-18T04:17:23.212Z,21.43
2023-04-18T04:19:25.362Z,24.30
2023-04-18T04:21:27.278Z,24.10
2023-04-18T04:23:29.106Z,17.20
2023-04-18T04:25:30.963Z,24.60
2023-04-18T04:27:34.118Z,21.70
2023-04-18T04:29:36.254Z,21.02
2023-04-18T04:31:38.070Z,18.52
2023-04-18T04:33:41.098Z,22.53
2023-04-18T04:35:43.518Z,22.05
2023-04-18T04:37:45.584Z,26.38
2023-04-18T04:39:47.504Z,22.50
2023-04-18T04:41:49.804Z,18.10
2023-04-18T04:43:52.375Z,19.45
2023-04-18T04:45:54.248Z,23.98
2023-04-18T04:47:56.078Z,20.98
2023-04-18T04:49:57.880Z,20.80
2023-04-18T04:52:01.417Z,20.33
2023-04-18T04:54:04.305Z,22.45
2023-04-18T04:56:07.223Z,18.92
2023-04-18T04:58:09.028Z,18.80
2023-04-18T05:00:11.449Z,20.80
2023-04-18T05:02:13.373Z,21.45
2023-04-18T05:04:15.722Z,22.50
2023-04-18T05:06:20.729Z,20.40
2023-04-18T05:08:22.663Z,24.25
2023-04-18T05:10:24.474Z,23.80
2023-04-18T05:12:26.883Z,17.57
2023-04-18T05:14:28.746Z,24.52
2023-04-18T05:16:30.737Z,19.97
2023-04-18T05:18:34.912Z,21.17
2023-04-18T05:20:36.953Z,22.90
2023-04-18T05:22:38.778Z,17.43
2023-04-18T05:24:41.300Z,20.90
2023-04-18T05:26:43.243Z,20.85
2023-04-18T05:28:45.127Z,21.25
2023-04-18T05:30:47.004Z,19.70
2023-04-18T05:32:48.986Z,19.80
2023-04-18T05:34:51.287Z,25.50
2023-04-18T05:36:53.113Z,18.40
2023-04-18T05:38:55.029Z,21.10
2023-04-18T05:41:00.245Z,17.65
2023-04-18T05:43:02.143Z,21.05
2023-04-18T05:45:04.216Z,18.92
2023-04-18T05:47:06.283Z,20.10
2023-04-18T05:49:08.261Z,20.83
2023-04-18T05:51:11.635Z,19.40
2023-04-18T05:53:13.659Z,18.00
2023-04-18T05:55:15.646Z,17.00
2023-04-18T05:57:17.492Z,19.38
2023-04-18T05:59:20.652Z,21.20
2023-04-18T06:01:23.005Z,19.30
2023-04-18T06:03:25.043Z,21.80
2023-04-18T06:05:27.266Z,18.17
2023-04-18T06:07:29.701Z,18.80
2023-04-18T06:09:31.563Z,21.38
2023-04-18T06:11:36.075Z,20.47
2023-04-18T06:13:37.953Z,22.52
2023-04-18T06:15:39.820Z,16.73
2023-04-18T06:17:41.733Z,21.60
2023-04-18T06:19:43.642Z,21.63
2023-04-18T06:21:45.804Z,19.65
2023-04-18T06:23:47.739Z,23.23
2023-04-18T06:25:49.583Z,18.58
2023-04-18T06:27:51.403Z,22.50
2023-04-18T06:29:53.411Z,25.43
2023-04-18T06:31:55.344Z,20.77
2023-04-18T06:33:57.284Z,19.02
2023-04-18T06:35:59.268Z,19.13
2023-04-18T06:38:01.102Z,19.70
2023-04-18T06:40:03.037Z,21.03
2023-04-18T06:42:05.054Z,24.58
2023-04-18T06:44:06.879Z,19.50
2023-04-18T06:46:08.808Z,24.70
2023-04-18T06:48:10.865Z,17.60
2023-04-18T06:50:12.760Z,19.90
2023-04-18T06:52:14.599Z,22.35
2023-04-18T06:54:16.456Z,20.83
2023-04-18T06:56:19.514Z,22.57
2023-04-18T06:58:21.445Z,18.77
2023-04-18T07:00:23.346Z,21.90
2023-04-18T07:02:25.385Z,20.38
2023-04-18T07:04:27.322Z,19.50
2023-04-18T07:06:29.181Z,19.92
2023-04-18T07:08:31.044Z,16.93
2023-04-18T07:10:32.898Z,20.58
2023-04-18T07:12:34.835Z,23.47
2023-04-18T07:14:36.687Z,19.55
2023-04-18T07:16:38.621Z,19.10
2023-04-18T07:18:40.582Z,20.70
2023-04-18T07:20:42.474Z,21.57
2023-04-18T07:22:44.382Z,19.67
2023-04-18T07:24:46.264Z,19.10
2023-04-18T07:26:48.106Z,19.05
2023-04-18T07:28:49.984Z,20.08
2023-04-18T07:30:51.878Z,19.90
2023-04-18T07:32:54.062Z,22.88
2023-04-18T07:34:57.376Z,20.05
2023-04-18T07:36:59.374Z,23.35
2023-04-18T07:39:01.891Z,20.67
2023-04-18T07:41:04.065Z,19.02
2023-04-18T07:43:05.957Z,18.77
2023-04-18T07:45:08.016Z,17.67
2023-04-18T07:47:12.441Z,18.35
2023-04-18T07:49:14.545Z,20.98
2023-04-18T07:51:17.028Z,17.88
2023-04-18T07:53:22.063Z,18.15
2023-04-18T07:55:24.211Z,18.50
2023-04-18T07:57:26.115Z,17.75
2023-04-18T07:59:28.979Z,19.55
2023-04-18T08:01:31.164Z,17.48
2023-04-18T08:03:35.086Z,19.90
2023-04-18T08:05:37.217Z,22.08
2023-04-18T08:07:39.245Z,17.83
2023-04-18T08:09:41.104Z,21.13
2023-04-18T08:11:42.943Z,18.37
2023-04-18T08:13:44.798Z,21.27
2023-04-18T08:15:47.809Z,22.57
2023-04-18T08:17:49.706Z,18.60
2023-04-18T08:19:51.594Z,17.85
2023-04-18T08:21:53.737Z,20.85
2023-04-18T08:23:58.734Z,18.70
2023-04-18T08:26:00.564Z,19.45
2023-04-18T08:28:02.394Z,17.87
2023-04-18T08:30:04.948Z,16.43
2023-04-18T08:32:07.910Z,18.70
2023-04-18T08:34:09.832Z,20.52
2023-04-18T08:36:12.855Z,17.30
2023-04-18T08:38:14.995Z,18.10
2023-04-18T08:40:16.976Z,20.50
2023-04-18T08:42:19.372Z,17.85
2023-04-18T08:44:21.598Z,23.75
2023-04-18T08:46:23.499Z,19.95
2023-04-18T08:48:26.500Z,16.30
2023-04-18T08:50:28.342Z,17.30
2023-04-18T08:52:31.228Z,17.10
2023-04-18T08:54:33.543Z,19.10
2023-04-18T08:56:37.632Z,20.65
2023-04-18T08:58:39.487Z,18.98
2023-04-18T09:00:41.750Z,16.63
2023-04-18T09:02:43.905Z,19.63
2023-04-18T09:04:49.087Z,15.85
2023-04-18T09:06:53.992Z,17.27
2023-04-18T09:08:57.640Z,16.92
2023-04-18T09:11:28.908Z,16.83
2023-04-18T09:13:40.174Z,15.52
2023-04-18T09:15:42.017Z,19.00
2023-04-18T09:17:51.356Z,18.77
2023-04-18T09:19:54.635Z,20.25
2023-04-18T09:22:00.169Z,17.10
2023-04-18T09:24:28.456Z,16.33
2023-04-18T09:26:34.339Z,16.58
2023-04-18T09:28:37.566Z,20.42
2023-04-18T09:30:40.637Z,15.75
2023-04-18T09:32:42.595Z,16.13
2023-04-18T09:34:44.481Z,18.15
2023-04-18T09:36:46.328Z,15.27
2023-04-18T09:38:48.852Z,14.20
2023-04-18T09:41:08.030Z,17.60
2023-04-18T09:43:20.055Z,17.27
2023-04-18T09:45:22.807Z,17.15
2023-04-18T09:49:26.734Z,14.95
2023-04-18T09:51:28.567Z,14.07
2023-04-18T09:53:30.978Z,18.30
2023-04-18T09:55:33.440Z,17.42
2023-04-18T09:57:36.366Z,25.85
2023-04-18T09:59:49.756Z,17.90
2023-04-18T10:01:51.937Z,16.75
2023-04-18T10:03:53.951Z,18.77
2023-04-18T10:05:57.661Z,16.27
2023-04-18T10:07:59.866Z,16.17
2023-04-18T10:10:01.724Z,19.58
2023-04-18T10:12:03.715Z,15.30
2023-04-18T10:14:08.026Z,13.95
2023-04-18T10:16:11.123Z,15.20
2023-04-18T10:18:18.922Z,13.65
2023-04-18T10:20:26.697Z,15.27
2023-04-18T10:22:28.591Z,15.10
2023-04-18T10:24:49.813Z,14.95
2023-04-18T10:26:51.855Z,14.25
2023-04-18T10:28:57.435Z,15.55
2023-04-18T10:31:05.707Z,15.77
2023-04-18T10:33:41.990Z,12.63
2023-04-18T10:36:05.496Z,13.75
2023-04-18T10:38:07.324Z,17.10
2023-04-18T10:40:10.393Z,13.50
2023-04-18T10:42:12.269Z,18.52
2023-04-18T10:44:14.988Z,15.07
2023-04-18T10:46:30.290Z,16.42
2023-04-18T10:51:19.227Z,14.50
2023-04-18T10:53:21.186Z,13.20
2023-04-18T10:55:26.960Z,14.55
2023-04-18T10:57:39.134Z,13.13
2023-04-18T10:59:46.789Z,11.93
2023-04-18T11:01:48.631Z,13.02
2023-04-18T11:03:50.544Z,18.13
2023-04-18T11:05:52.472Z,14.73
2023-04-18T11:07:54.951Z,15.32
2023-04-18T11:09:56.889Z,16.80
2023-04-18T11:12:10.930Z,14.07
2023-04-18T11:14:13.126Z,15.52
2023-04-18T11:16:27.154Z,15.63
2023-04-18T11:18:41.055Z,13.68
2023-04-18T11:20:50.118Z,16.83
2023-04-18T11:22:59.062Z,12.48
2023-04-18T11:25:01.839Z,12.15
2023-04-18T11:27:04.328Z,14.13
2023-04-18T11:29:06.427Z,17.77
2023-04-18T11:31:08.618Z,15.35
2023-04-18T11:33:13.783Z,18.33
2023-04-18T11:35:16.158Z,16.83
2023-04-18T11:37:18.018Z,14.68
2023-04-18T11:39:20.609Z,14.30
2023-04-18T11:41:22.445Z,14.45
2023-04-18T11:43:25.008Z,14.23
2023-04-18T11:45:27.517Z,10.85
2023-04-18T11:47:34.137Z,12.00
2023-04-18T11:49:36.007Z,12.63
2023-04-18T11:51:44.743Z,15.63
2023-04-18T11:53:46.751Z,12.98
2023-04-18T11:55:55.851Z,17.08
2023-04-18T11:57:58.725Z,14.05
2023-04-18T12:00:01.678Z,12.07
2023-04-18T12:02:15.464Z,15.20
2023-04-18T12:04:19.158Z,12.95
2023-04-18T12:06:21.305Z,11.88
2023-04-18T12:08:23.185Z,17.02
2023-04-18T12:10:27.707Z,11.80
2023-04-18T12:12:30.837Z,15.15
2023-04-18T12:14:32.670Z,12.65
2023-04-18T12:16:34.518Z,13.40
2023-04-18T12:18:36.422Z,15.43
2023-04-18T12:20:52.392Z,14.70
2023-04-18T12:22:55.139Z,13.93
2023-04-18T12:29:48.634Z,13.55
2023-04-18T12:31:50.734Z,12.07
2023-04-18T12:33:52.859Z,13.60
2023-04-18T12:35:54.726Z,14.65
2023-04-18T12:37:57.512Z,19.60
2023-04-18T12:39:59.407Z,14.43
2023-04-18T12:42:02.343Z,12.03
2023-04-18T12:44:04.533Z,12.43
2023-04-18T12:46:06.319Z,12.10
2023-04-18T12:48:08.294Z,14.20
2023-04-18T12:50:11.650Z,19.75
2023-04-18T12:52:13.549Z,12.48
2023-04-18T12:54:15.570Z,12.73
2023-04-18T12:56:17.592Z,15.20
2023-04-18T12:58:20.652Z,14.37
2023-04-18T13:00:23.665Z,14.63
2023-04-18T13:02:26.652Z,18.67
2023-04-18T13:04:28.842Z,13.50
2023-04-18T13:06:30.848Z,14.07
2023-04-18T13:08:32.764Z,13.98
2023-04-18T13:10:34.666Z,14.80
2023-04-18T13:12:37.362Z,12.63
2023-04-18T13:16:43.583Z,12.60
2023-04-18T13:18:45.701Z,13.65
2023-04-18T13:20:47.669Z,10.33
2023-04-18T13:22:49.554Z,11.65
2023-04-18T13:24:51.430Z,13.13
2023-04-18T13:26:53.291Z,12.87
2023-04-18T13:28:55.238Z,12.60
2023-04-18T13:30:57.021Z,11.23
2023-04-18T13:32:58.837Z,12.00
2023-04-18T13:35:00.819Z,12.50
2023-04-18T13:37:02.686Z,12.40
2023-04-18T13:39:05.249Z,10.87
2023-04-18T13:41:12.763Z,11.32
2023-04-18T13:43:15.557Z,11.20
2023-04-18T13:45:17.476Z,12.85
2023-04-18T13:47:19.376Z,14.02
2023-04-18T13:49:21.540Z,11.32
2023-04-18T13:51:23.410Z,10.35
2023-04-18T13:53:25.388Z,10.50
2023-04-18T13:55:27.265Z,7.90
2023-04-18T13:57:32.177Z,9.85
2023-04-18T13:59:34.166Z,10.23
2023-04-18T14:01:36.057Z,10.85
2023-04-18T14:03:39.439Z,10.02
2023-04-18T14:05:42.478Z,10.57
2023-04-18T14:07:44.437Z,10.67
2023-04-18T14:09:48.193Z,9.75
2023-04-18T14:11:51.372Z,9.57
2023-04-18T14:13:53.278Z,12.60
2023-04-18T14:15:55.436Z,9.82
2023-04-18T14:17:57.485Z,8.93
2023-04-18T14:19:59.352Z,10.82
2023-04-18T14:22:01.148Z,10.52
2023-04-18T14:24:03.815Z,11.10
2023-04-18T14:28:09.806Z,9.32
2023-04-18T14:30:13.052Z,10.68
2023-04-18T14:32:14.918Z,12.25
2023-04-18T14:34:16.731Z,9.02
2023-04-18T14:36:18.563Z,10.15
2023-04-18T14:38:20.754Z,11.60
2023-04-18T14:40:23.130Z,13.27
2023-04-18T14:42:25.152Z,12.35
2023-04-18T14:44:27.399Z,11.15
2023-04-18T14:46:30.741Z,8.30
2023-04-18T14:48:35.589Z,18.90
2023-04-18T14:50:38.797Z,12.00
2023-04-18T14:52:41.004Z,12.73
2023-04-18T14:54:44.097Z,13.18
2023-04-18T14:56:45.951Z,11.65
2023-04-18T14:58:47.956Z,11.52
2023-04-18T15:00:50.579Z,10.45
2023-04-18T15:04:54.669Z,13.98
2023-04-18T15:06:56.972Z,10.43
2023-04-18T15:08:58.793Z,10.20
2023-04-18T15:11:01.267Z,13.23
2023-04-18T15:15:06.260Z,14.73
2023-04-18T15:17:08.115Z,10.85
2023-04-18T15:19:09.945Z,10.93
2023-04-18T15:21:12.223Z,10.90
2023-04-18T15:23:14.788Z,12.30
2023-04-18T15:27:19.067Z,11.67
2023-04-18T15:29:21.170Z,14.07
2023-04-18T15:31:23.638Z,15.02
2023-04-18T15:33:26.036Z,11.18
2023-04-18T15:35:27.935Z,15.43
2023-04-18T15:37:29.860Z,12.55
2023-04-18T15:39:31.780Z,12.38
2023-04-18T15:41:38.080Z,12.05
2023-04-18T15:43:41.903Z,11.27
2023-04-18T15:45:44.628Z,11.77
2023-04-18T15:47:46.847Z,14.73
2023-04-18T15:49:48.727Z,12.07
2023-04-18T15:51:50.574Z,10.70
2023-04-18T15:53:52.422Z,11.60
2023-04-18T15:55:54.371Z,11.23
2023-04-18T15:57:56.431Z,13.48
2023-04-18T15:59:59.625Z,12.43
2023-04-18T16:02:02.193Z,12.48
2023-04-18T16:04:04.252Z,11.57
2023-04-18T16:06:06.272Z,10.88
2023-04-18T16:08:09.516Z,12.32
2023-04-18T16:10:12.872Z,12.77
2023-04-18T16:12:14.841Z,14.35
2023-04-18T16:14:16.894Z,12.82
2023-04-18T16:16:18.948Z,14.35
2023-04-18T16:18:20.942Z,16.42
2023-04-18T16:20:23.103Z,13.52
2023-04-18T16:22:24.950Z,14.10
2023-04-18T16:24:26.884Z,21.85
2023-04-18T16:26:29.036Z,13.52
2023-04-18T16:28:31.048Z,11.98
2023-04-18T16:30:32.887Z,14.40
2023-04-18T16:32:38.680Z,17.23
2023-04-18T16:34:40.660Z,15.48
2023-04-18T16:36:42.496Z,14.65
2023-04-18T16:38:44.397Z,15.03
2023-04-18T16:40:46.286Z,22.40
2023-04-18T16:42:48.217Z,12.55
2023-04-18T16:44:50.098Z,15.07
2023-04-18T16:46:52.097Z,14.70
2023-04-18T16:48:54.022Z,14.05
2023-04-18T16:50:56.139Z,13.00
2023-04-18T16:52:57.998Z,13.75
2023-04-18T16:54:59.793Z,14.13
2023-04-18T16:57:01.835Z,14.37
2023-04-18T16:59:04.193Z,12.10
2023-04-18T17:01:08.221Z,17.98
2023-04-18T17:03:10.261Z,16.73
2023-04-18T17:05:12.369Z,14.25
2023-04-18T17:07:14.233Z,18.55
2023-04-18T17:09:16.324Z,15.07
2023-04-18T17:11:18.379Z,13.63
2023-04-18T17:13:20.985Z,12.07
2023-04-18T17:15:22.994Z,13.75
2023-04-18T17:17:24.943Z,13.45
2023-04-18T17:19:26.798Z,13.60
2023-04-18T17:21:28.739Z,14.27
2023-04-18T17:23:32.785Z,14.15
2023-04-18T17:25:35.032Z,18.38
2023-04-18T17:27:37.096Z,14.60
2023-04-18T17:29:38.993Z,14.98
2023-04-18T17:31:40.945Z,17.30
2023-04-18T17:33:43.088Z,15.77
2023-04-18T17:35:44.990Z,10.85
2023-04-18T17:37:47.916Z,15.45
2023-04-18T17:39:49.917Z,17.05
2023-04-18T17:41:51.759Z,16.83
2023-04-18T17:43:53.641Z,15.03
2023-04-18T17:45:56.041Z,16.03
2023-04-18T17:47:59.551Z,13.80
2023-04-18T17:50:01.501Z,14.98
2023-04-18T17:52:03.764Z,14.32
2023-04-18T17:54:05.616Z,13.68
2023-04-18T17:56:07.469Z,12.57
2023-04-18T17:58:09.436Z,12.57
2023-04-18T18:00:12.000Z,12.57
2023-04-18T18:02:14.009Z,14.43
2023-04-18T18:04:16.316Z,13.20
2023-04-18T18:06:18.585Z,16.08
2023-04-18T18:08:20.701Z,11.73
2023-04-18T18:10:23.851Z,14.65
2023-04-18T18:12:26.372Z,14.95
2023-04-18T18:14:28.239Z,12.65
2023-04-18T18:16:30.104Z,10.30
2023-04-18T18:18:32.232Z,12.40
2023-04-18T18:20:34.101Z,17.05
2023-04-18T18:22:36.193Z,14.10
2023-04-18T18:24:38.116Z,12.88
2023-04-18T18:26:40.023Z,16.15
2023-04-18T18:28:41.903Z,26.77
2023-04-18T18:30:43.771Z,21.03
2023-04-18T18:32:45.798Z,15.70
2023-04-18T18:34:47.817Z,16.75
2023-04-18T18:36:50.590Z,15.32
2023-04-18T18:40:54.243Z,16.23
2023-04-18T18:42:56.849Z,18.23
2023-04-18T18:44:58.848Z,14.43
2023-04-18T18:47:00.669Z,18.58
2023-04-18T18:49:02.509Z,18.53
2023-04-18T18:51:04.430Z,16.92
2023-04-18T18:53:06.859Z,14.18
2023-04-18T18:55:11.663Z,11.57
2023-04-18T18:57:13.547Z,12.52
2023-04-18T18:59:16.114Z,13.45
2023-04-18T19:03:21.261Z,12.57
2023-04-18T19:05:23.350Z,10.77
2023-04-18T19:07:25.512Z,12.00
2023-04-18T19:09:27.569Z,11.13
2023-04-18T19:11:29.702Z,9.95
2023-04-18T19:13:31.563Z,15.38
2023-04-18T19:15:33.457Z,12.07
2023-04-18T19:17:35.372Z,14.52
2023-04-18T19:19:37.283Z,12.88
2023-04-18T19:21:39.866Z,13.63
2023-04-18T19:23:44.284Z,12.45
2023-04-18T19:25:46.784Z,15.55
2023-04-18T19:27:48.629Z,15.90
2023-04-18T19:29:50.732Z,12.18
2023-04-18T19:31:52.696Z,13.40
2023-04-18T19:33:54.711Z,15.10
2023-04-18T19:35:56.624Z,13.77
2023-04-18T19:38:01.697Z,16.23
2023-04-18T19:40:03.818Z,13.55
2023-04-18T19:42:05.800Z,15.40
2023-04-18T19:44:07.776Z,14.32
2023-04-18T19:46:09.650Z,13.60
2023-04-18T19:48:12.028Z,14.33
2023-04-18T19:50:14.733Z,11.50
2023-04-18T19:54:21.780Z,11.57
2023-04-18T19:56:23.842Z,9.77
2023-04-18T19:58:39.902Z,8.77
2023-04-18T20:00:41.747Z,13.63
2023-04-18T20:02:43.754Z,8.07
2023-04-18T20:04:46.030Z,12.57
2023-04-18T20:06:47.996Z,13.45
2023-04-18T20:08:49.893Z,10.20
2023-04-18T20:10:51.778Z,9.73
2023-04-18T20:12:53.606Z,7.17
2023-04-18T20:14:55.690Z,9.07
2023-04-18T20:16:57.637Z,9.52
2023-04-18T20:18:59.785Z,11.35
2023-04-18T20:21:08.623Z,7.30
2023-04-18T20:23:14.523Z,7.28
2023-04-18T20:25:16.593Z,10.48
2023-04-18T20:27:20.590Z,9.23
2023-04-18T20:29:22.461Z,6.85
2023-04-18T20:31:24.292Z,14.02
2023-04-18T20:33:26.151Z,9.77
2023-04-18T20:35:28.180Z,7.60
2023-04-18T20:37:30.086Z,12.13
2023-04-18T20:39:32.677Z,8.18
2023-04-18T20:41:35.020Z,9.82
2023-04-18T20:43:37.400Z,6.90
2023-04-18T20:45:42.945Z,10.50
2023-04-18T20:47:44.991Z,10.57
2023-04-18T20:49:46.988Z,8.73
2023-04-18T20:51:48.917Z,7.18
2023-04-18T20:53:50.850Z,8.27
2023-04-18T20:55:52.726Z,13.02
2023-04-18T20:57:54.581Z,5.88
2023-04-18T20:59:58.674Z,5.87
2023-04-18T21:02:00.762Z,8.65
2023-04-18T21:04:03.116Z,8.40
2023-04-18T21:06:05.217Z,8.05
2023-04-18T21:08:07.076Z,7.13
2023-04-18T21:10:09.254Z,10.15
2023-04-18T21:12:11.119Z,5.50
2023-04-18T21:14:13.139Z,9.77
2023-04-18T21:16:15.188Z,8.07
2023-04-18T21:18:17.037Z,6.32
2023-04-18T21:20:19.306Z,8.27
2023-04-18T21:22:21.199Z,7.53
2023-04-18T21:24:23.029Z,8.70
2023-04-18T21:26:24.845Z,6.67
2023-04-18T21:28:26.676Z,7.83
2023-04-18T21:30:28.598Z,9.13
2023-04-18T21:32:30.554Z,6.85
2023-04-18T21:34:32.476Z,7.40
2023-04-18T21:36:34.349Z,4.80
2023-04-18T21:38:36.176Z,6.03
2023-04-18T21:40:38.113Z,8.17
2023-04-18T21:42:39.918Z,7.57
2023-04-18T21:44:41.732Z,6.13
2023-04-18T21:46:43.605Z,4.57
2023-04-18T21:48:46.195Z,5.03
2023-04-18T21:50:54.780Z,3.45
2023-04-18T21:52:56.659Z,5.55
2023-04-18T21:54:59.318Z,7.25
2023-04-18T21:59:02.868Z,9.15
2023-04-18T22:01:04.852Z,5.57
2023-04-18T22:03:07.192Z,6.43
2023-04-18T22:05:09.317Z,6.72
2023-04-18T22:07:15.650Z,8.95
2023-04-18T22:09:19.393Z,3.83
2023-04-18T22:11:23.661Z,8.38
2023-04-18T22:13:30.197Z,5.93
2023-04-18T22:15:32.130Z,7.68
2023-04-18T22:17:35.057Z,8.70
2023-04-18T22:19:36.921Z,6.13
2023-04-18T22:21:38.726Z,5.70
2023-04-18T22:23:40.517Z,4.72
2023-04-18T22:25:42.427Z,4.87
2023-04-18T22:27:45.181Z,11.25
2023-04-18T22:29:47.010Z,9.73
2023-04-18T22:31:48.884Z,11.83
2023-04-18T22:33:50.870Z,11.73
2023-04-18T22:35:52.910Z,21.95
2023-04-18T22:37:55.850Z,8.55
2023-04-18T22:39:57.653Z,6.93
2023-04-18T22:41:59.464Z,7.70
2023-04-18T22:44:01.504Z,8.37
2023-04-18T22:46:03.752Z,6.93
2023-04-18T22:48:06.038Z,9.43
2023-04-18T22:50:08.634Z,6.63
2023-04-18T22:52:10.452Z,6.97
2023-04-18T22:54:12.495Z,10.83
2023-04-18T22:56:14.407Z,8.63
2023-04-18T22:58:16.268Z,5.00
2023-04-18T23:00:18.268Z,6.53
2023-04-18T23:02:20.247Z,7.65
2023-04-18T23:04:22.280Z,9.68
2023-04-18T23:06:24.286Z,6.40
2023-04-18T23:08:26.106Z,9.00
2023-04-18T23:10:27.975Z,6.47
2023-04-18T23:12:29.894Z,5.93
2023-04-18T23:14:32.144Z,6.97
2023-04-18T23:16:34.293Z,6.43
2023-04-18T23:18:36.194Z,11.32
2023-04-18T23:20:38.038Z,6.10
2023-04-18T23:22:39.867Z,11.93
2023-04-18T23:24:41.666Z,13.43
2023-04-18T23:26:43.468Z,7.53
2023-04-18T23:28:45.320Z,10.53
2023-04-18T23:30:48.218Z,12.77
2023-04-18T23:32:50.056Z,7.88
2023-04-18T23:34:52.163Z,13.27
2023-04-18T23:36:53.996Z,7.18
2023-04-18T23:38:56.013Z,11.43
2023-04-18T23:40:57.952Z,7.97
2023-04-18T23:42:59.845Z,15.73
2023-04-18T23:45:03.532Z,12.45
2023-04-18T23:47:05.953Z,8.93
2023-04-18T23:49:07.845Z,11.57
2023-04-18T23:51:09.984Z,9.77
2023-04-18T23:53:11.808Z,9.35
2023-04-18T23:55:13.677Z,10.05
2023-04-18T23:57:15.614Z,6.90
2023-04-18T23:59:17.476Z,9.13
